createdAt,value
2017-08-16T00:00:13.042Z,56.00
2017-08-16T00:02:41.499Z,46.00
2017-08-16T00:05:10.658Z,56.20
2017-08-16T00:07:39.455Z,85.37
2017-08-16T00:10:08.134Z,70.03
2017-08-16T00:12:36.914Z,72.87
2017-08-16T00:15:05.499Z,93.43
2017-08-16T00:17:34.599Z,78.80
2017-08-16T00:20:03.193Z,73.03
2017-08-16T00:22:31.906Z,82.30
2017-08-16T00:25:00.631Z,127.60
2017-08-16T00:27:29.149Z,174.60
2017-08-16T00:29:57.738Z,230.57
2017-08-16T00:32:26.422Z,198.30
2017-08-16T00:34:54.455Z,215.73
2017-08-16T00:37:23.116Z,235.40
2017-08-16T00:39:51.830Z,240.50
2017-08-16T00:42:21.173Z,269.00
2017-08-16T00:44:49.967Z,238.40
2017-08-16T00:47:18.655Z,236.83
2017-08-16T00:49:47.115Z,251.77
2017-08-16T00:52:15.822Z,248.27
2017-08-16T00:54:44.507Z,209.63
2017-08-16T00:57:13.259Z,214.03
2017-08-16T00:59:41.743Z,231.93
2017-08-16T01:02:10.272Z,248.73
2017-08-16T01:04:38.844Z,215.63
2017-08-16T01:07:07.389Z,254.13
2017-08-16T01:09:37.554Z,232.67
2017-08-16T01:12:06.063Z,211.80
2017-08-16T01:14:34.890Z,221.53
2017-08-16T01:17:03.238Z,230.83
2017-08-16T01:19:32.130Z,224.30
2017-08-16T01:22:00.707Z,243.77
2017-08-16T01:24:29.675Z,201.30
2017-08-16T01:26:58.426Z,285.30
2017-08-16T01:29:26.546Z,223.10
2017-08-16T01:31:55.222Z,232.33
2017-08-16T01:34:24.537Z,226.00
2017-08-16T01:36:53.419Z,221.53
2017-08-16T01:39:22.096Z,272.33
2017-08-16T01:41:50.626Z,249.90
2017-08-16T01:44:19.486Z,221.23
2017-08-16T01:46:48.094Z,247.77
2017-08-16T01:49:17.369Z,232.33
2017-08-16T01:51:46.602Z,222.17
2017-08-16T01:54:15.319Z,285.07
2017-08-16T01:56:43.670Z,224.80
2017-08-16T01:59:12.426Z,232.57
2017-08-16T02:01:40.484Z,218.70
2017-08-16T02:04:08.510Z,225.17
2017-08-16T02:06:36.639Z,212.90
2017-08-16T02:09:05.438Z,194.17
2017-08-16T02:11:34.022Z,214.10
2017-08-16T02:14:02.593Z,233.00
2017-08-16T02:16:31.187Z,203.23
2017-08-16T02:18:59.797Z,233.70
2017-08-16T02:21:28.563Z,224.03
2017-08-16T02:23:57.340Z,221.77
2017-08-16T02:26:26.117Z,210.20
2017-08-16T02:28:54.718Z,205.67
2017-08-16T02:31:23.704Z,204.40
2017-08-16T02:33:51.725Z,170.67
2017-08-16T02:36:21.128Z,207.77
2017-08-16T02:38:50.498Z,157.47
2017-08-16T02:41:19.073Z,207.17
2017-08-16T02:43:47.632Z,172.73
2017-08-16T02:46:16.154Z,180.37
2017-08-16T02:48:44.799Z,181.40
2017-08-16T02:51:13.290Z,185.80
2017-08-16T02:53:41.801Z,192.03
2017-08-16T02:56:10.494Z,170.03
2017-08-16T02:58:38.990Z,181.57
2017-08-16T03:01:07.762Z,178.20
2017-08-16T03:03:35.818Z,206.93
2017-08-16T03:06:04.382Z,181.30
2017-08-16T03:08:32.826Z,195.50
2017-08-16T03:11:01.691Z,159.93
2017-08-16T03:13:29.866Z,165.33
2017-08-16T03:15:58.458Z,129.47
2017-08-16T03:18:27.142Z,142.93
2017-08-16T03:20:55.362Z,151.47
2017-08-16T03:23:24.815Z,140.00
2017-08-16T03:25:54.259Z,143.10
2017-08-16T03:28:23.183Z,150.20
2017-08-16T03:30:51.589Z,132.50
2017-08-16T03:33:20.086Z,126.63
2017-08-16T03:35:48.899Z,119.07
2017-08-16T03:38:17.893Z,121.23
2017-08-16T03:40:46.338Z,124.70
2017-08-16T03:43:15.066Z,115.57
2017-08-16T03:45:43.655Z,97.93
2017-08-16T03:48:12.375Z,121.97
2017-08-16T03:50:40.878Z,115.57
2017-08-16T03:53:09.491Z,115.73
2017-08-16T03:55:37.594Z,116.07
2017-08-16T03:58:07.163Z,122.27
2017-08-16T04:00:35.840Z,105.13
2017-08-16T04:03:04.410Z,97.20
2017-08-16T04:05:33.022Z,101.57
2017-08-16T04:08:01.702Z,91.87
2017-08-16T04:10:29.785Z,93.17
2017-08-16T04:12:58.566Z,109.53
2017-08-16T04:15:27.353Z,73.90
2017-08-16T04:17:55.819Z,113.17
2017-08-16T04:20:24.530Z,84.90
2017-08-16T04:22:53.139Z,97.30
2017-08-16T04:25:21.864Z,93.90
2017-08-16T04:27:50.442Z,97.83
2017-08-16T04:30:19.882Z,84.87
2017-08-16T04:32:48.350Z,99.83
2017-08-16T04:35:16.958Z,63.93
2017-08-16T04:37:45.713Z,72.03
2017-08-16T04:40:14.074Z,76.17
2017-08-16T04:42:43.698Z,69.83
2017-08-16T04:45:11.782Z,77.23
2017-08-16T04:47:40.390Z,75.97
2017-08-16T04:50:10.170Z,67.13
2017-08-16T04:52:38.894Z,73.63
2017-08-16T04:55:07.690Z,85.30
2017-08-16T04:57:36.612Z,76.53
2017-08-16T05:00:05.103Z,60.20
2017-08-16T05:02:33.199Z,77.60
2017-08-16T05:05:02.431Z,74.77
2017-08-16T05:07:30.981Z,78.70
2017-08-16T05:10:00.278Z,77.37
2017-08-16T05:12:28.507Z,64.93
2017-08-16T05:14:57.078Z,59.83
2017-08-16T05:17:25.590Z,79.83
2017-08-16T05:19:54.369Z,73.53
2017-08-16T05:22:22.543Z,85.80
2017-08-16T05:24:50.754Z,56.30
2017-08-16T05:27:20.034Z,59.33
2017-08-16T05:29:48.587Z,80.93
2017-08-16T05:32:17.374Z,67.13
2017-08-16T05:34:46.230Z,72.47
2017-08-16T05:37:14.630Z,70.30
2017-08-16T05:39:43.342Z,67.27
2017-08-16T05:42:12.154Z,73.10
2017-08-16T05:44:40.831Z,79.00
2017-08-16T05:47:09.279Z,67.80
2017-08-16T05:49:37.469Z,64.90
2017-08-16T05:52:05.486Z,79.77
2017-08-16T05:54:33.514Z,60.37
2017-08-16T05:57:02.163Z,58.80
2017-08-16T05:59:30.182Z,65.03
2017-08-16T06:01:58.690Z,63.57
2017-08-16T06:04:27.925Z,74.70
2017-08-16T06:06:56.682Z,52.80
2017-08-16T06:09:26.241Z,67.60
2017-08-16T06:11:54.902Z,66.77
2017-08-16T06:14:23.424Z,71.13
2017-08-16T06:16:52.006Z,65.77
2017-08-16T06:19:20.858Z,58.10
2017-08-16T06:21:49.262Z,57.60
2017-08-16T06:24:17.765Z,55.73
2017-08-16T06:26:45.895Z,60.03
2017-08-16T06:29:14.438Z,65.23
2017-08-16T06:31:42.470Z,66.27
2017-08-16T06:34:11.106Z,64.27
2017-08-16T06:36:39.690Z,68.77
2017-08-16T06:39:08.411Z,66.43
2017-08-16T06:41:36.592Z,94.10
2017-08-16T06:44:05.107Z,48.73
2017-08-16T06:46:33.863Z,63.57
2017-08-16T06:49:02.350Z,80.40
2017-08-16T06:51:30.386Z,60.10
2017-08-16T06:53:58.814Z,51.50
2017-08-16T06:56:27.626Z,67.62
2017-08-16T06:58:56.238Z,52.78
2017-08-16T07:01:24.279Z,53.47
2017-08-16T07:03:53.073Z,57.80
2017-08-16T07:06:21.090Z,74.78
2017-08-16T07:08:49.439Z,53.20
2017-08-16T07:11:18.338Z,51.20
2017-08-16T07:13:47.063Z,57.83
2017-08-16T07:16:15.473Z,47.90
2017-08-16T07:18:44.103Z,56.67
2017-08-16T07:21:12.818Z,64.27
2017-08-16T07:23:41.170Z,64.17
2017-08-16T07:26:09.299Z,60.67
2017-08-16T07:28:37.991Z,55.20
2017-08-16T07:31:06.766Z,63.40
2017-08-16T07:33:35.583Z,47.03
2017-08-16T07:36:03.626Z,65.73
2017-08-16T07:38:32.234Z,62.97
2017-08-16T07:41:01.026Z,64.57
2017-08-16T07:43:29.710Z,67.63
2017-08-16T07:45:58.131Z,57.57
2017-08-16T07:48:27.762Z,49.73
2017-08-16T07:50:56.159Z,57.23
2017-08-16T07:53:24.175Z,54.60
2017-08-16T07:55:52.290Z,49.83
2017-08-16T07:58:21.511Z,66.93
2017-08-16T08:00:49.543Z,53.27
2017-08-16T08:03:17.715Z,50.67
2017-08-16T08:05:46.906Z,48.60
2017-08-16T08:08:15.491Z,46.80
2017-08-16T08:10:44.354Z,67.57
2017-08-16T08:13:13.206Z,67.03
2017-08-16T08:15:41.562Z,49.27
2017-08-16T08:18:10.827Z,67.57
2017-08-16T08:20:39.411Z,53.93
2017-08-16T08:23:07.919Z,57.67
2017-08-16T08:25:36.034Z,70.90
2017-08-16T08:28:04.563Z,61.93
2017-08-16T08:30:33.299Z,51.30
2017-08-16T08:33:02.563Z,67.23
2017-08-16T08:35:31.283Z,51.83
2017-08-16T08:37:59.688Z,48.03
2017-08-16T08:40:28.498Z,54.20
2017-08-16T08:42:57.106Z,52.40
2017-08-16T08:45:25.134Z,57.80
2017-08-16T08:47:53.847Z,52.50
2017-08-16T08:50:22.523Z,45.93
2017-08-16T08:52:50.982Z,50.40
2017-08-16T08:55:19.738Z,48.10
2017-08-16T08:57:48.882Z,53.83
2017-08-16T09:00:17.478Z,60.00
2017-08-16T09:02:46.375Z,58.03
2017-08-16T09:05:15.123Z,64.30
2017-08-16T09:07:43.518Z,53.23
2017-08-16T09:10:12.230Z,56.93
2017-08-16T09:12:40.914Z,51.50
2017-08-16T09:15:09.662Z,58.73
2017-08-16T09:17:39.122Z,79.00
2017-08-16T09:20:07.859Z,64.13
2017-08-16T09:22:36.261Z,59.77
2017-08-16T09:25:05.071Z,43.60
2017-08-16T09:27:33.651Z,64.90
2017-08-16T09:30:02.329Z,61.20
2017-08-16T09:32:31.003Z,51.80
2017-08-16T09:34:59.805Z,67.60
2017-08-16T09:37:27.818Z,53.17
2017-08-16T09:39:56.334Z,65.67
2017-08-16T09:42:24.862Z,58.50
2017-08-16T09:44:54.195Z,64.37
2017-08-16T09:47:23.434Z,63.37
2017-08-16T09:49:51.466Z,50.83
2017-08-16T09:52:20.734Z,53.17
2017-08-16T09:54:49.618Z,71.37
2017-08-16T09:57:17.643Z,50.27
2017-08-16T09:59:45.671Z,51.90
2017-08-16T10:02:14.315Z,46.90
2017-08-16T10:04:42.942Z,56.70
2017-08-16T10:07:11.622Z,52.27
2017-08-16T10:09:40.174Z,47.73
2017-08-16T10:12:08.695Z,72.60
2017-08-16T10:14:37.408Z,62.63
2017-08-16T10:17:06.235Z,54.40
2017-08-16T10:19:34.693Z,55.80
2017-08-16T10:22:03.979Z,63.43
2017-08-16T10:24:32.598Z,70.00
2017-08-16T10:27:01.127Z,56.03
2017-08-16T10:29:29.807Z,68.33
2017-08-16T10:31:58.310Z,54.20
2017-08-16T10:34:26.883Z,43.77
2017-08-16T10:36:55.666Z,51.77
2017-08-16T10:39:24.519Z,48.00
2017-08-16T10:41:52.923Z,48.87
2017-08-16T10:44:21.528Z,65.93
2017-08-16T10:46:50.342Z,53.10
2017-08-16T10:49:18.355Z,84.27
2017-08-16T10:51:46.880Z,61.67
2017-08-16T10:54:15.759Z,52.90
2017-08-16T10:56:44.818Z,64.93
2017-08-16T10:59:13.227Z,53.53
2017-08-16T11:01:41.962Z,67.83
2017-08-16T11:04:10.610Z,72.57
2017-08-16T11:06:39.391Z,66.43
2017-08-16T11:09:07.951Z,59.10
2017-08-16T11:11:35.967Z,58.67
2017-08-16T11:14:04.417Z,53.40
2017-08-16T11:16:33.131Z,46.07
2017-08-16T11:19:01.711Z,51.90
2017-08-16T11:21:30.172Z,65.23
2017-08-16T11:23:58.919Z,52.30
2017-08-16T11:26:27.495Z,60.90
2017-08-16T11:28:56.215Z,54.97
2017-08-16T11:31:24.702Z,57.47
2017-08-16T11:33:53.150Z,63.83
2017-08-16T11:36:21.866Z,53.63
2017-08-16T11:38:50.350Z,67.53
2017-08-16T11:41:18.878Z,52.37
2017-08-16T11:43:47.518Z,56.17
2017-08-16T11:46:16.018Z,66.23
2017-08-16T11:48:44.631Z,66.43
2017-08-16T11:51:13.317Z,70.93
2017-08-16T11:53:42.275Z,59.87
2017-08-16T11:56:10.770Z,57.20
2017-08-16T11:58:39.046Z,65.87
2017-08-16T12:01:07.163Z,73.23
2017-08-16T12:03:35.727Z,69.10
2017-08-16T12:06:04.415Z,50.87
2017-08-16T12:08:32.968Z,65.47
2017-08-16T12:11:01.603Z,60.50
2017-08-16T12:13:30.231Z,71.07
2017-08-16T12:15:58.711Z,52.67
2017-08-16T12:18:26.742Z,74.00
2017-08-16T12:20:55.181Z,59.20
2017-08-16T12:23:23.898Z,62.73
2017-08-16T12:25:52.643Z,55.60
2017-08-16T12:28:21.043Z,81.73
2017-08-16T12:30:49.855Z,49.73
2017-08-16T12:33:18.675Z,62.67
2017-08-16T12:35:47.394Z,60.93
2017-08-16T12:38:15.879Z,54.27
2017-08-16T12:40:44.399Z,58.53
2017-08-16T12:43:13.146Z,64.07
2017-08-16T12:45:41.734Z,74.83
2017-08-16T12:48:10.286Z,70.80
2017-08-16T12:50:39.002Z,54.73
2017-08-16T12:53:07.494Z,62.07
2017-08-16T12:55:36.318Z,65.83
2017-08-16T12:58:04.939Z,66.67
2017-08-16T13:00:34.127Z,66.77
2017-08-16T13:03:02.951Z,60.00
2017-08-16T13:05:31.355Z,61.63
2017-08-16T13:07:59.505Z,58.73
2017-08-16T13:10:28.227Z,66.93
2017-08-16T13:12:56.703Z,59.73
2017-08-16T13:15:25.544Z,59.10
2017-08-16T13:17:53.654Z,61.93
2017-08-16T13:20:22.198Z,69.40
2017-08-16T13:22:50.319Z,72.30
2017-08-16T13:25:18.803Z,72.83
2017-08-16T13:27:47.308Z,67.03
2017-08-16T13:30:16.117Z,58.63
2017-08-16T13:32:44.871Z,69.97
2017-08-16T13:35:13.352Z,67.63
2017-08-16T13:37:42.059Z,52.30
2017-08-16T13:40:10.738Z,55.33
2017-08-16T13:42:38.758Z,53.57
2017-08-16T13:45:07.508Z,63.50
2017-08-16T13:47:36.250Z,57.37
2017-08-16T13:50:04.664Z,68.37
2017-08-16T13:52:33.354Z,69.53
2017-08-16T13:55:02.042Z,56.43
2017-08-16T13:57:30.795Z,62.30
2017-08-16T13:59:59.322Z,62.77
2017-08-16T14:02:28.554Z,63.87
2017-08-16T14:04:57.102Z,46.10
2017-08-16T14:07:25.894Z,56.83
2017-08-16T14:09:54.579Z,63.33
2017-08-16T14:12:23.355Z,62.63
2017-08-16T14:14:51.914Z,55.40
2017-08-16T14:17:19.918Z,65.77
2017-08-16T14:19:48.391Z,54.40
2017-08-16T14:22:16.538Z,55.13
2017-08-16T14:24:45.259Z,55.90
2017-08-16T14:27:13.731Z,63.17
2017-08-16T14:29:42.539Z,60.93
2017-08-16T14:32:11.150Z,66.73
2017-08-16T14:34:39.901Z,54.93
2017-08-16T14:37:08.462Z,54.10
2017-08-16T14:39:37.115Z,58.30
2017-08-16T14:42:05.699Z,55.13
2017-08-16T14:44:34.561Z,65.70
2017-08-16T14:47:03.414Z,63.80
2017-08-16T14:49:31.810Z,69.17
2017-08-16T14:52:00.622Z,56.50
2017-08-16T14:54:29.234Z,58.93
2017-08-16T14:56:57.984Z,67.40
2017-08-16T14:59:26.643Z,56.50
2017-08-16T15:01:54.670Z,57.00
2017-08-16T15:04:22.789Z,53.20
2017-08-16T15:06:51.544Z,56.10
2017-08-16T15:09:20.271Z,65.13
2017-08-16T15:11:48.674Z,59.20
2017-08-16T15:14:17.270Z,57.60
2017-08-16T15:16:45.986Z,66.63
2017-08-16T15:19:14.430Z,56.43
2017-08-16T15:21:43.159Z,51.57
2017-08-16T15:24:11.810Z,58.27
2017-08-16T15:26:40.490Z,78.87
2017-08-16T15:29:09.050Z,54.13
2017-08-16T15:31:37.079Z,81.13
2017-08-16T15:34:05.518Z,48.80
2017-08-16T15:36:34.334Z,70.43
2017-08-16T15:39:02.910Z,72.93
2017-08-16T15:41:30.926Z,61.60
2017-08-16T15:44:00.250Z,57.97
2017-08-16T15:46:28.781Z,56.70
2017-08-16T15:48:57.418Z,65.47
2017-08-16T15:51:26.411Z,58.60
2017-08-16T15:53:54.811Z,57.97
2017-08-16T15:56:23.343Z,60.90
2017-08-16T15:58:51.453Z,60.30
2017-08-16T16:01:19.970Z,68.93
2017-08-16T16:03:48.261Z,48.97
2017-08-16T16:06:16.894Z,61.23
2017-08-16T16:08:44.939Z,56.53
2017-08-16T16:11:14.519Z,65.43
2017-08-16T16:13:43.314Z,57.60
2017-08-16T16:16:12.000Z,54.27
2017-08-16T16:35:21.523Z,54.00
2017-08-16T16:37:50.038Z,72.60
2017-08-16T16:40:18.727Z,50.70
2017-08-16T16:42:47.583Z,64.67
2017-08-16T16:45:15.870Z,61.07
2017-08-16T16:47:44.406Z,65.90
2017-08-16T16:50:13.335Z,59.13
2017-08-16T16:52:41.726Z,62.30
2017-08-16T16:55:10.131Z,64.87
2017-08-16T16:57:39.023Z,51.47
2017-08-16T17:00:07.780Z,57.87
2017-08-16T17:02:36.489Z,55.37
2017-08-16T17:05:04.907Z,59.97
2017-08-16T17:07:33.500Z,64.17
2017-08-16T17:10:02.245Z,78.47
2017-08-16T17:12:30.380Z,69.27
2017-08-16T17:14:59.678Z,69.63
2017-08-16T17:17:28.817Z,63.27
2017-08-16T17:19:57.624Z,56.30
2017-08-16T17:22:25.694Z,57.47
2017-08-16T17:24:54.211Z,53.40
2017-08-16T17:27:22.970Z,64.03
2017-08-16T17:29:51.651Z,62.83
2017-08-16T17:32:20.402Z,58.00
2017-08-16T17:34:48.527Z,52.27
2017-08-16T17:37:17.203Z,68.07
2017-08-16T17:39:45.951Z,65.67
2017-08-16T17:42:14.590Z,64.17
2017-08-16T17:44:42.610Z,56.53
2017-08-16T17:47:11.324Z,56.13
2017-08-16T17:49:39.986Z,45.53
2017-08-16T17:52:08.407Z,56.87
2017-08-16T17:54:37.051Z,62.57
2017-08-16T17:57:05.579Z,52.03
2017-08-16T17:59:33.582Z,54.10
2017-08-16T18:02:02.846Z,54.93
2017-08-16T18:04:31.738Z,49.03
2017-08-16T18:07:00.595Z,51.03
2017-08-16T18:09:28.991Z,50.70
2017-08-16T18:11:57.698Z,45.47
2017-08-16T18:14:26.382Z,58.77
2017-08-16T18:16:55.162Z,58.43
2017-08-16T18:19:23.822Z,41.53
2017-08-16T18:21:59.619Z,39.83
2017-08-16T18:24:28.166Z,42.93
2017-08-16T18:26:56.231Z,50.80
2017-08-16T18:29:24.274Z,53.17
2017-08-16T18:31:58.160Z,50.80
2017-08-16T18:34:26.765Z,51.13
2017-08-16T18:36:55.486Z,46.67
2017-08-16T18:39:23.970Z,36.70
2017-08-16T18:41:52.010Z,42.60
2017-08-16T18:44:20.447Z,44.07
2017-08-16T18:46:49.146Z,48.70
2017-08-16T18:49:17.774Z,45.97
2017-08-16T18:51:47.142Z,49.17
2017-08-16T18:54:15.850Z,43.37
2017-08-16T18:56:44.472Z,48.50
2017-08-16T18:59:12.923Z,41.03
2017-08-16T19:01:41.682Z,41.87
2017-08-16T19:04:10.404Z,54.87
2017-08-16T19:06:38.544Z,53.40
2017-08-16T19:09:07.607Z,57.73
2017-08-16T19:11:36.229Z,58.10
2017-08-16T19:14:04.947Z,46.03
2017-08-16T19:16:33.810Z,47.67
2017-08-16T19:19:02.555Z,47.00
2017-08-16T19:21:31.006Z,47.70
2017-08-16T19:23:59.766Z,49.00
2017-08-16T19:26:28.378Z,49.97
2017-08-16T19:28:57.098Z,51.23
2017-08-16T19:31:25.254Z,52.13
2017-08-16T19:33:53.858Z,50.67
2017-08-16T19:36:22.215Z,62.23
2017-08-16T19:38:51.438Z,53.77
2017-08-16T19:41:19.966Z,59.50
2017-08-16T19:43:48.583Z,73.17
2017-08-16T19:46:16.698Z,56.10
2017-08-16T19:48:45.206Z,46.40
2017-08-16T19:51:13.215Z,59.80
2017-08-16T19:53:43.499Z,60.13
2017-08-16T19:56:12.090Z,60.80
2017-08-16T19:58:40.734Z,55.60
2017-08-16T20:01:09.298Z,54.83
2017-08-16T20:03:37.311Z,49.93
2017-08-16T20:06:05.329Z,55.23
2017-08-16T20:08:34.015Z,43.50
2017-08-16T20:11:02.907Z,42.40
2017-08-16T20:13:31.557Z,42.30
2017-08-16T20:16:01.070Z,37.37
2017-08-16T20:18:29.747Z,45.67
2017-08-16T20:20:58.174Z,43.30
2017-08-16T20:23:26.828Z,49.87
2017-08-16T20:25:55.514Z,38.57
2017-08-16T20:28:24.189Z,51.37
2017-08-16T20:30:52.918Z,47.43
2017-08-16T20:33:20.939Z,46.03
2017-08-16T20:35:49.374Z,48.97
2017-08-16T20:38:18.031Z,46.13
2017-08-16T20:40:46.719Z,63.13
2017-08-16T20:43:15.838Z,41.10
2017-08-16T20:45:45.040Z,46.87
2017-08-16T20:48:13.863Z,54.67
2017-08-16T20:50:42.267Z,50.53
2017-08-16T20:53:10.971Z,57.70
2017-08-16T20:55:39.658Z,42.97
2017-08-16T20:58:08.338Z,54.13
2017-08-16T21:00:36.891Z,47.30
2017-08-16T21:03:05.418Z,60.47
2017-08-16T21:05:34.098Z,53.37
2017-08-16T21:08:02.951Z,50.20
2017-08-16T21:10:32.326Z,61.50
2017-08-16T21:13:01.319Z,56.73
2017-08-16T21:15:30.143Z,53.97
2017-08-16T21:17:59.511Z,50.70
2017-08-16T21:20:28.131Z,48.43
2017-08-16T21:22:56.610Z,56.57
2017-08-16T21:25:26.118Z,46.23
2017-08-16T21:27:54.465Z,47.27
2017-08-16T21:30:23.123Z,67.10
2017-08-16T21:32:51.146Z,73.83
2017-08-16T21:35:19.583Z,55.93
2017-08-16T21:37:48.374Z,53.10
2017-08-16T21:40:17.023Z,62.83
2017-08-16T21:42:45.642Z,60.23
2017-08-16T21:45:15.278Z,56.67
2017-08-16T21:47:43.834Z,58.23
2017-08-16T21:50:12.450Z,55.83
2017-08-16T21:52:41.210Z,55.63
2017-08-16T21:55:09.818Z,50.43
2017-08-16T21:57:38.543Z,66.90
2017-08-16T22:00:07.118Z,70.90
2017-08-16T22:02:36.630Z,57.30
2017-08-16T22:05:04.926Z,58.93
2017-08-16T22:07:33.055Z,58.37
2017-08-16T22:10:01.670Z,57.87
2017-08-16T22:12:31.178Z,73.90
2017-08-16T22:15:00.626Z,49.73
2017-08-16T22:17:29.207Z,62.90
2017-08-16T22:19:57.883Z,64.30
2017-08-16T22:22:26.518Z,48.87
2017-08-16T22:24:55.554Z,42.53
2017-08-16T22:27:24.163Z,56.30
2017-08-16T22:29:52.946Z,59.60
2017-08-16T22:32:21.698Z,52.07
2017-08-16T22:34:50.094Z,48.77
2017-08-16T22:37:18.194Z,50.03
2017-08-16T22:39:46.653Z,60.60
2017-08-16T22:42:15.262Z,46.27
2017-08-16T22:44:44.079Z,41.97
2017-08-16T22:47:12.802Z,53.57
2017-08-16T22:49:41.253Z,42.90
2017-08-16T22:52:09.907Z,49.43
2017-08-16T22:54:38.590Z,47.20
2017-08-16T22:57:07.269Z,59.40
2017-08-16T22:59:35.867Z,56.10
2017-08-16T23:02:04.459Z,46.17
2017-08-16T23:04:32.486Z,48.27
2017-08-16T23:07:01.242Z,53.90
2017-08-16T23:09:29.274Z,51.83
2017-08-16T23:11:57.794Z,36.63
2017-08-16T23:14:26.486Z,48.07
2017-08-16T23:16:55.243Z,37.20
2017-08-16T23:19:23.920Z,41.60
2017-08-16T23:21:52.511Z,46.77
2017-08-16T23:24:21.106Z,53.93
2017-08-16T23:26:49.681Z,44.13
2017-08-16T23:29:18.575Z,38.10
2017-08-16T23:31:47.357Z,57.47
2017-08-16T23:34:15.891Z,46.57
2017-08-16T23:36:44.374Z,73.73
2017-08-16T23:39:13.567Z,43.50
2017-08-16T23:41:42.278Z,53.47
2017-08-16T23:44:10.771Z,43.80
2017-08-16T23:46:39.188Z,36.77
2017-08-16T23:49:07.834Z,51.73
2017-08-16T23:51:36.321Z,50.40
2017-08-16T23:54:05.326Z,41.33
2017-08-16T23:56:33.729Z,44.90
2017-08-16T23:59:02.646Z,33.27
